createdAt,value
2022-09-10T00:01:38.225Z,6.55
2022-09-10T00:04:15.548Z,4.20
2022-09-10T00:06:44.531Z,4.30
2022-09-10T00:09:13.942Z,5.30
2022-09-10T00:11:43.203Z,3.97
2022-09-10T00:14:23.765Z,4.45
2022-09-10T00:16:52.443Z,3.90
2022-09-10T00:19:21.946Z,4.03
2022-09-10T00:21:50.656Z,4.32
2022-09-10T00:24:18.924Z,7.10
2022-09-10T00:26:47.233Z,4.97
2022-09-10T00:29:18.535Z,4.68
2022-09-10T00:31:47.143Z,6.82
2022-09-10T00:34:15.451Z,4.53
2022-09-10T00:36:44.183Z,4.70
2022-09-10T00:39:16.889Z,4.50
2022-09-10T00:41:47.813Z,5.88
2022-09-10T00:44:39.829Z,4.82
2022-09-10T00:47:22.120Z,4.97
2022-09-10T00:50:03.648Z,6.90
2022-09-10T00:52:34.485Z,6.95
2022-09-10T00:55:07.233Z,5.50
2022-09-10T00:57:35.787Z,3.60
2022-09-10T01:00:10.955Z,7.57
2022-09-10T01:02:39.692Z,6.40
2022-09-10T01:05:09.311Z,7.20
2022-09-10T01:07:39.033Z,5.15
2022-09-10T01:16:40.304Z,7.45
2022-09-10T01:19:50.740Z,7.80
2022-09-10T01:22:49.481Z,5.90
2022-09-10T01:25:51.025Z,6.03
2022-09-10T01:28:54.327Z,6.00
2022-09-10T01:31:34.122Z,5.57
2022-09-10T01:34:16.705Z,6.45
2022-09-10T01:36:48.162Z,6.07
2022-09-10T01:39:19.620Z,7.15
2022-09-10T01:41:49.847Z,5.72
2022-09-10T01:44:46.334Z,6.75
2022-09-10T01:48:00.915Z,5.50
2022-09-10T01:50:48.118Z,9.43
2022-09-10T01:54:00.205Z,5.47
2022-09-10T01:57:01.871Z,6.78
2022-09-10T02:00:10.031Z,5.57
2022-09-10T02:06:23.629Z,7.22
2022-09-10T02:08:54.229Z,7.15
2022-09-10T02:11:22.640Z,4.28
2022-09-10T02:13:53.405Z,5.25
2022-09-10T02:16:37.622Z,3.58
2022-09-10T02:19:08.050Z,7.30
2022-09-10T02:21:37.019Z,4.20
2022-09-10T02:24:09.944Z,4.32
2022-09-10T02:26:42.457Z,4.53
2022-09-10T02:29:15.923Z,4.30
2022-09-10T02:31:45.726Z,6.82
2022-09-10T02:34:18.524Z,8.43
2022-09-10T02:36:49.441Z,5.07
2022-09-10T02:39:17.894Z,5.38
2022-09-10T02:41:48.062Z,8.15
2022-09-10T02:44:16.485Z,7.88
2022-09-10T02:46:45.259Z,6.10
2022-09-10T02:49:13.635Z,6.55
2022-09-10T02:51:43.656Z,8.55
2022-09-10T02:54:12.455Z,8.57
2022-09-10T02:56:40.649Z,6.40
2022-09-10T02:59:10.037Z,9.52
2022-09-10T03:01:38.607Z,3.88
2022-09-10T03:04:07.972Z,6.60
2022-09-10T03:06:36.770Z,10.23
2022-09-10T03:09:05.980Z,6.20
2022-09-10T03:11:38.196Z,5.00
2022-09-10T03:14:10.515Z,6.70
2022-09-10T03:16:40.155Z,7.60
2022-09-10T03:19:09.160Z,5.20
2022-09-10T03:21:41.381Z,6.85
2022-09-10T03:24:14.276Z,6.10
2022-09-10T03:26:44.317Z,5.45
2022-09-10T03:29:13.209Z,4.55
2022-09-10T03:31:42.703Z,5.53
2022-09-10T03:34:14.283Z,7.35
2022-09-10T03:36:47.218Z,5.32
2022-09-10T03:39:16.200Z,8.77
2022-09-10T03:41:45.422Z,4.25
2022-09-10T03:44:15.891Z,6.15
2022-09-10T03:46:45.500Z,5.63
2022-09-10T03:49:15.897Z,7.90
2022-09-10T03:51:44.824Z,7.80
2022-09-10T03:54:15.827Z,8.10
2022-09-10T03:56:44.949Z,5.45
2022-09-10T03:59:13.578Z,4.30
2022-09-10T04:01:42.936Z,5.60
2022-09-10T04:04:12.610Z,8.75
2022-09-10T04:06:40.930Z,5.65
2022-09-10T04:09:10.556Z,6.00
2022-09-10T04:11:40.116Z,6.80
2022-09-10T04:14:09.971Z,5.47
2022-09-10T04:16:41.614Z,10.10
2022-09-10T04:19:13.409Z,10.05
2022-09-10T04:21:42.420Z,7.28
2022-09-10T04:24:13.821Z,7.32
2022-09-10T04:26:43.643Z,6.72
2022-09-10T04:29:12.912Z,6.50
2022-09-10T04:31:42.138Z,8.88
2022-09-10T04:34:14.279Z,6.70
2022-09-10T04:36:42.692Z,6.20
2022-09-10T04:39:11.175Z,8.95
2022-09-10T04:41:39.532Z,4.47
2022-09-10T04:44:08.795Z,8.10
2022-09-10T04:46:37.071Z,5.13
2022-09-10T04:49:09.295Z,5.80
2022-09-10T04:51:38.332Z,4.07
2022-09-10T04:54:06.697Z,5.28
2022-09-10T04:56:38.259Z,5.72
2022-09-10T04:59:07.158Z,6.65
2022-09-10T05:01:38.336Z,5.05
2022-09-10T05:04:07.074Z,5.75
2022-09-10T05:06:37.978Z,5.57
2022-09-10T05:09:09.067Z,4.47
2022-09-10T05:11:37.540Z,5.43
2022-09-10T05:14:07.308Z,3.33
2022-09-10T05:16:36.526Z,3.95
2022-09-10T05:19:04.808Z,5.97
2022-09-10T05:21:37.472Z,5.22
2022-09-10T05:24:06.051Z,2.58
2022-09-10T05:26:34.989Z,3.53
2022-09-10T05:29:03.471Z,6.68
2022-09-10T05:31:32.472Z,7.30
2022-09-10T05:34:01.127Z,5.53
2022-09-10T05:36:31.999Z,4.03
2022-09-10T05:39:01.080Z,9.70
2022-09-10T05:44:01.515Z,5.70
2022-09-10T05:46:30.853Z,4.03
2022-09-10T05:49:03.379Z,5.55
2022-09-10T05:51:31.724Z,6.78
2022-09-10T05:54:04.314Z,5.93
2022-09-10T05:56:34.705Z,3.92
2022-09-10T05:59:06.048Z,4.85
2022-09-10T06:01:35.051Z,6.18
2022-09-10T06:04:06.152Z,4.97
2022-09-10T06:06:34.502Z,5.63
2022-09-10T06:09:07.802Z,5.00
2022-09-10T06:11:47.742Z,4.10
2022-09-10T06:14:16.332Z,5.20
2022-09-10T06:16:44.806Z,6.93
2022-09-10T06:19:13.037Z,6.45
2022-09-10T06:21:41.244Z,7.53
2022-09-10T06:24:10.267Z,4.25
2022-09-10T06:26:41.807Z,6.57
2022-09-10T06:29:14.608Z,5.93
2022-09-10T06:31:43.378Z,9.18
2022-09-10T06:34:12.954Z,5.32
2022-09-10T06:36:41.980Z,4.43
2022-09-10T06:39:10.805Z,4.03
2022-09-10T06:41:49.738Z,5.93
2022-09-10T06:44:50.583Z,4.60
2022-09-10T06:50:23.061Z,4.13
2022-09-10T06:52:53.173Z,6.95
2022-09-10T06:55:23.556Z,4.22
2022-09-10T06:57:51.929Z,3.28
2022-09-10T07:00:20.583Z,4.28
2022-09-10T07:02:52.799Z,4.97
2022-09-10T07:05:22.431Z,5.38
2022-09-10T07:07:51.363Z,8.02
2022-09-10T07:10:19.613Z,4.70
2022-09-10T07:12:47.950Z,6.18
2022-09-10T07:15:16.252Z,3.78
2022-09-10T07:17:45.612Z,3.28
2022-09-10T07:20:14.820Z,4.80
2022-09-10T07:22:46.771Z,5.35
2022-09-10T07:25:16.536Z,6.00
2022-09-10T07:28:04.393Z,7.28
2022-09-10T07:33:04.034Z,3.83
2022-09-10T07:56:47.452Z,6.35
2022-09-10T07:59:16.861Z,5.40
2022-09-10T08:01:50.158Z,6.82
2022-09-10T08:04:21.264Z,7.10
2022-09-10T08:06:49.505Z,7.13
2022-09-10T08:09:19.394Z,7.30
2022-09-10T08:11:53.034Z,7.55
2022-09-10T08:16:55.026Z,5.82
2022-09-10T08:19:23.256Z,10.23
2022-09-10T08:21:53.151Z,6.05
2022-09-10T08:24:28.829Z,9.90
2022-09-10T08:26:57.242Z,9.43
2022-09-10T08:29:25.563Z,8.05
2022-09-10T08:31:53.796Z,7.68
2022-09-10T08:34:29.025Z,7.63
2022-09-10T08:37:06.694Z,6.45
2022-09-10T08:39:36.669Z,7.93
2022-09-10T08:42:17.180Z,8.50
2022-09-10T08:45:00.194Z,9.00
2022-09-10T08:47:46.401Z,7.32
2022-09-10T08:50:53.240Z,10.02
2022-09-10T08:53:39.283Z,7.95
2022-09-10T08:56:18.436Z,7.28
2022-09-10T08:59:29.735Z,7.40
2022-09-10T09:02:37.870Z,7.22
2022-09-10T09:05:23.023Z,5.28
2022-09-10T09:07:58.472Z,4.70
2022-09-10T09:11:05.003Z,6.53
2022-09-10T09:14:00.657Z,4.50
2022-09-10T09:17:09.616Z,4.28
2022-09-10T09:20:25.993Z,7.03
2022-09-10T09:23:06.566Z,6.03
2022-09-10T09:25:56.361Z,4.38
2022-09-10T09:28:32.541Z,5.18
2022-09-10T09:31:20.515Z,4.20
2022-09-10T09:33:56.209Z,5.13
2022-09-10T09:36:34.251Z,4.13
2022-09-10T09:39:15.409Z,7.93
2022-09-10T09:42:15.974Z,4.43
2022-09-10T09:44:53.821Z,4.82
2022-09-10T09:47:24.949Z,6.28
2022-09-10T09:49:53.990Z,4.18
2022-09-10T09:52:24.950Z,4.73
2022-09-10T09:55:15.738Z,3.45
2022-09-10T09:57:44.541Z,4.22
2022-09-10T10:00:38.972Z,3.78
2022-09-10T10:03:24.983Z,12.60
2022-09-10T10:06:08.729Z,6.03
2022-09-10T10:08:51.649Z,4.05
2022-09-10T10:11:22.232Z,5.40
2022-09-10T10:13:52.904Z,4.45
2022-09-10T10:16:35.467Z,5.50
2022-09-10T10:19:08.097Z,5.97
2022-09-10T10:21:36.894Z,6.78
2022-09-10T10:24:21.858Z,5.57
2022-09-10T10:26:50.234Z,4.15
2022-09-10T10:29:20.685Z,4.43
2022-09-10T10:31:50.984Z,4.65
2022-09-10T10:34:45.176Z,5.35
2022-09-10T10:38:03.339Z,3.97
2022-09-10T10:40:43.422Z,4.10
2022-09-10T10:43:53.279Z,3.88
2022-09-10T10:46:49.925Z,4.07
2022-09-10T10:50:03.329Z,3.88
2022-09-10T10:53:43.115Z,3.08
2022-09-10T10:56:38.141Z,4.30
2022-09-10T10:59:55.484Z,3.25
2022-09-10T11:02:52.994Z,3.50
2022-09-10T11:05:35.689Z,3.67
2022-09-10T11:08:55.167Z,6.95
2022-09-10T11:12:15.412Z,7.22
2022-09-10T11:14:58.536Z,4.10
2022-09-10T11:17:36.136Z,4.55
2022-09-10T11:20:53.676Z,3.28
2022-09-10T11:24:16.929Z,5.60
2022-09-10T11:27:11.304Z,3.85
2022-09-10T11:30:00.319Z,4.13
2022-09-10T11:33:04.870Z,3.42
2022-09-10T11:35:50.628Z,2.72
2022-09-10T11:38:29.037Z,2.40
2022-09-10T11:41:23.571Z,2.60
2022-09-10T11:44:14.461Z,2.35
2022-09-10T11:46:59.771Z,2.38
2022-09-10T11:50:07.074Z,2.25
2022-09-10T11:52:36.667Z,2.67
2022-09-10T11:55:22.028Z,3.38
2022-09-10T11:58:15.737Z,2.20
2022-09-10T12:01:23.276Z,4.05
2022-09-10T12:04:20.210Z,3.10
2022-09-10T12:07:11.356Z,3.17
2022-09-10T12:09:54.996Z,2.30
2022-09-10T12:12:45.750Z,2.88
2022-09-10T12:15:37.214Z,2.15
2022-09-10T12:18:17.861Z,2.38
2022-09-10T12:21:32.962Z,3.00
2022-09-10T12:24:27.209Z,2.20
2022-09-10T12:26:55.776Z,2.35
2022-09-10T12:29:37.745Z,2.22
2022-09-10T12:32:09.450Z,4.13
2022-09-10T12:34:38.597Z,4.00
2022-09-10T12:37:19.882Z,2.83
2022-09-10T12:39:49.365Z,2.30
2022-09-10T12:42:30.254Z,1.75
2022-09-10T12:44:58.636Z,3.53
2022-09-10T12:47:33.181Z,5.15
2022-09-10T12:50:17.081Z,2.60
2022-09-10T12:52:53.789Z,2.47
2022-09-10T12:55:39.659Z,4.75
2022-09-10T12:58:49.142Z,3.00
2022-09-10T13:01:37.946Z,2.83
2022-09-10T13:04:29.180Z,2.80
2022-09-10T13:07:05.178Z,3.30
2022-09-10T13:09:38.296Z,4.05
2022-09-10T13:12:21.267Z,4.35
2022-09-10T13:14:53.794Z,4.03
2022-09-10T13:18:00.018Z,4.55
2022-09-10T13:20:31.802Z,5.82
2022-09-10T13:23:10.088Z,4.25
2022-09-10T13:25:45.599Z,5.93
2022-09-10T13:28:35.040Z,3.33
2022-09-10T13:31:08.573Z,5.65
2022-09-10T13:33:51.153Z,3.63
2022-09-10T13:36:48.077Z,2.28
2022-09-10T13:39:47.733Z,2.20
2022-09-10T13:42:58.381Z,2.45
2022-09-10T13:45:53.695Z,7.68
2022-09-10T13:48:33.158Z,4.30
2022-09-10T13:51:24.256Z,1.88
2022-09-10T13:53:53.516Z,3.22
2022-09-10T13:56:28.124Z,5.80
2022-09-10T13:59:02.040Z,2.42
2022-09-10T14:01:56.504Z,2.15
2022-09-10T14:04:26.393Z,2.13
2022-09-10T14:07:04.430Z,2.13
2022-09-10T14:10:00.784Z,5.95
2022-09-10T14:12:33.685Z,2.72
2022-09-10T14:15:06.390Z,3.95
2022-09-10T14:17:43.028Z,1.95
2022-09-10T14:20:33.392Z,2.17
2022-09-10T14:23:05.253Z,1.48
2022-09-10T14:25:37.680Z,1.50
2022-09-10T14:28:15.552Z,1.70
2022-09-10T14:30:48.992Z,2.85
2022-09-10T14:33:36.577Z,4.25
2022-09-10T14:36:29.892Z,2.70
2022-09-10T14:39:16.653Z,2.08
2022-09-10T14:41:45.159Z,1.80
2022-09-10T14:44:22.713Z,2.53
2022-09-10T14:46:58.828Z,1.65
2022-09-10T14:49:34.962Z,1.95
2022-09-10T14:52:06.438Z,2.08
2022-09-10T14:54:35.015Z,1.67
2022-09-10T14:57:09.886Z,1.95
2022-09-10T14:59:41.341Z,2.13
2022-09-10T15:02:28.142Z,2.33
2022-09-10T15:04:56.639Z,2.83
2022-09-10T15:07:24.952Z,1.90
2022-09-10T15:09:53.622Z,3.85
2022-09-10T15:12:29.419Z,2.78
2022-09-10T15:15:00.726Z,3.40
2022-09-10T15:17:29.387Z,2.20
2022-09-10T15:19:57.841Z,4.03
2022-09-10T15:22:30.585Z,2.83
2022-09-10T15:25:12.798Z,2.33
2022-09-10T15:27:41.722Z,2.60
2022-09-10T15:30:10.280Z,2.60
2022-09-10T15:32:38.525Z,3.65
2022-09-10T15:35:07.131Z,2.88
2022-09-10T15:37:35.367Z,3.17
2022-09-10T15:40:07.835Z,2.35
2022-09-10T15:42:39.288Z,2.90
2022-09-10T15:45:08.811Z,2.92
2022-09-10T15:47:36.982Z,2.75
2022-09-10T15:50:06.002Z,2.70
2022-09-10T15:52:34.783Z,2.58
2022-09-10T15:55:03.430Z,3.20
2022-09-10T15:57:31.718Z,2.53
2022-09-10T16:00:01.670Z,3.53
2022-09-10T16:02:33.588Z,2.78
2022-09-10T16:05:01.810Z,2.83
2022-09-10T16:07:30.052Z,2.33
2022-09-10T16:09:58.720Z,2.25
2022-09-10T16:12:27.342Z,2.38
2022-09-10T16:14:56.559Z,2.17
2022-09-10T16:17:25.318Z,2.70
2022-09-10T16:19:54.438Z,3.13
2022-09-10T16:22:22.707Z,2.40
2022-09-10T16:24:50.952Z,2.63
2022-09-10T16:27:26.070Z,3.00
2022-09-10T16:29:55.120Z,3.55
2022-09-10T16:32:23.659Z,3.20
2022-09-10T16:34:51.863Z,2.88
2022-09-10T16:37:21.394Z,3.25
2022-09-10T16:39:49.816Z,4.70
2022-09-10T16:42:17.980Z,3.83
2022-09-10T16:44:46.166Z,3.22
2022-09-10T16:47:14.352Z,4.32
2022-09-10T16:49:42.598Z,3.08
2022-09-10T16:52:11.876Z,1.85
2022-09-10T16:54:40.087Z,2.53
2022-09-10T16:57:08.293Z,2.45
2022-09-10T16:59:36.517Z,1.60
2022-09-10T17:02:07.415Z,1.73
2022-09-10T17:04:35.873Z,3.17
2022-09-10T17:07:04.226Z,1.90
2022-09-10T17:09:32.462Z,1.88
2022-09-10T17:12:00.869Z,2.92
2022-09-10T17:14:29.043Z,2.47
2022-09-10T17:16:58.518Z,1.77
2022-09-10T17:19:27.221Z,2.08
2022-09-10T17:21:56.758Z,2.55
2022-09-10T17:24:26.833Z,3.20
2022-09-10T17:26:55.698Z,3.65
2022-09-10T17:29:25.494Z,3.97
2022-09-10T17:31:55.341Z,3.03
2022-09-10T17:34:27.909Z,2.10
2022-09-10T17:36:56.334Z,2.03
2022-09-10T17:39:28.141Z,1.92
2022-09-10T17:41:56.584Z,2.65
2022-09-10T17:44:25.597Z,2.00
2022-09-10T17:46:55.084Z,1.73
2022-09-10T17:49:24.379Z,2.17
2022-09-10T17:51:53.256Z,3.33
2022-09-10T17:54:21.586Z,2.40
2022-09-10T17:56:49.774Z,3.40
2022-09-10T17:59:18.539Z,3.50
2022-09-10T18:01:47.563Z,2.50
2022-09-10T18:04:21.446Z,2.67
2022-09-10T18:06:52.401Z,3.65
2022-09-10T18:09:21.902Z,2.45
2022-09-10T18:11:50.247Z,2.75
2022-09-10T18:14:20.651Z,2.45
2022-09-10T18:16:51.115Z,3.10
2022-09-10T18:19:19.484Z,3.47
2022-09-10T18:21:48.884Z,3.00
2022-09-10T18:24:19.182Z,3.20
2022-09-10T18:26:49.212Z,3.83
2022-09-10T18:29:26.823Z,3.55
2022-09-10T18:32:00.590Z,4.53
2022-09-10T18:34:30.951Z,3.15
2022-09-10T18:37:02.538Z,3.85
2022-09-10T18:39:32.482Z,3.58
2022-09-10T18:42:01.514Z,3.38
2022-09-10T18:44:40.194Z,5.07
2022-09-10T18:47:27.939Z,4.30
2022-09-10T18:49:59.085Z,3.22
2022-09-10T18:52:27.900Z,3.17
2022-09-10T18:54:56.335Z,5.72
2022-09-10T18:57:24.611Z,2.97
2022-09-10T18:59:55.055Z,3.30
2022-09-10T19:02:23.925Z,3.25
2022-09-10T19:05:10.187Z,3.28
2022-09-10T19:07:39.391Z,3.85
2022-09-10T19:10:08.860Z,9.00
2022-09-10T19:12:37.066Z,5.22
2022-09-10T19:15:05.624Z,3.53
2022-09-10T19:17:34.407Z,3.30
2022-09-10T19:20:02.782Z,3.97
2022-09-10T19:22:31.163Z,3.85
2022-09-10T19:25:24.767Z,3.35
2022-09-10T19:27:53.162Z,4.57
2022-09-10T19:30:21.342Z,4.45
2022-09-10T19:32:49.517Z,5.35
2022-09-10T19:35:17.888Z,4.68
2022-09-10T19:37:48.281Z,7.72
2022-09-10T19:40:17.259Z,6.18
2022-09-10T19:42:45.454Z,6.38
2022-09-10T19:45:17.849Z,7.97
2022-09-10T19:47:46.061Z,8.10
2022-09-10T19:50:14.442Z,9.00
2022-09-10T19:52:42.605Z,5.90
2022-09-10T19:55:12.873Z,6.90
2022-09-10T19:57:41.219Z,7.15
2022-09-10T20:00:24.824Z,7.32
2022-09-10T20:02:59.795Z,5.50
2022-09-10T20:05:28.866Z,7.05
2022-09-10T20:07:57.053Z,6.88
2022-09-10T20:10:25.250Z,5.93
2022-09-10T20:12:53.438Z,6.15
2022-09-10T20:15:21.602Z,5.95
2022-09-10T20:17:53.068Z,5.15
2022-09-10T20:20:21.292Z,5.47
2022-09-10T20:22:49.454Z,6.35
2022-09-10T20:25:17.699Z,6.28
2022-09-10T20:27:45.983Z,8.43
2022-09-10T20:30:14.360Z,9.18
2022-09-10T20:32:42.659Z,7.47
2022-09-10T20:35:10.965Z,11.65
2022-09-10T20:37:39.238Z,10.95
2022-09-10T20:40:08.094Z,11.57
2022-09-10T20:42:36.288Z,8.93
2022-09-10T20:45:05.146Z,10.13
2022-09-10T20:47:37.222Z,8.95
2022-09-10T20:50:06.441Z,8.52
2022-09-10T20:52:34.699Z,8.38
2022-09-10T20:55:04.028Z,8.52
2022-09-10T20:57:32.447Z,8.40
2022-09-10T21:00:00.677Z,7.88
2022-09-10T21:02:28.983Z,8.65
2022-09-10T21:04:58.522Z,10.82
2022-09-10T21:07:28.229Z,8.52
2022-09-10T21:09:56.691Z,8.02
2022-09-10T21:12:25.583Z,9.77
2022-09-10T21:14:53.755Z,10.50
2022-09-10T21:17:22.447Z,11.25
2022-09-10T21:19:50.638Z,10.45
2022-09-10T21:22:18.804Z,10.30
2022-09-10T21:24:47.006Z,8.88
2022-09-10T21:27:15.171Z,8.32
2022-09-10T21:29:43.727Z,13.30
2022-09-10T21:32:12.172Z,11.77
2022-09-10T21:34:40.371Z,10.68
2022-09-10T21:37:08.604Z,11.90
2022-09-10T21:39:36.854Z,11.35
2022-09-10T21:42:05.262Z,15.25
2022-09-10T21:44:34.121Z,12.35
2022-09-10T21:47:02.680Z,10.15
2022-09-10T21:49:30.894Z,8.05
2022-09-10T21:51:59.151Z,9.75
2022-09-10T21:54:28.100Z,11.57
2022-09-10T21:56:56.697Z,8.90
2022-09-10T21:59:25.646Z,9.07
2022-09-10T22:01:54.333Z,6.03
2022-09-10T22:04:28.177Z,10.77
2022-09-10T22:06:57.479Z,11.85
2022-09-10T22:09:26.260Z,7.45
2022-09-10T22:11:55.024Z,8.60
2022-09-10T22:14:24.790Z,9.45
2022-09-10T22:16:53.825Z,9.43
2022-09-10T22:19:25.235Z,12.18
2022-09-10T22:21:54.144Z,7.40
2022-09-10T22:24:24.033Z,10.93
2022-09-10T22:26:52.209Z,11.80
2022-09-10T22:29:20.589Z,14.52
2022-09-10T22:31:50.053Z,6.78
2022-09-10T22:34:31.549Z,8.30
2022-09-10T22:37:03.087Z,8.45
2022-09-10T22:39:32.085Z,16.15
2022-09-10T22:42:00.388Z,8.23
2022-09-10T22:44:28.559Z,10.88
2022-09-10T22:46:56.764Z,11.55
2022-09-10T22:49:24.946Z,13.68
2022-09-10T22:51:53.230Z,14.93
2022-09-10T22:54:21.782Z,13.88
2022-09-10T22:56:50.087Z,15.38
2022-09-10T22:59:18.229Z,15.23
2022-09-10T23:01:47.329Z,12.35
2022-09-10T23:04:16.027Z,11.63
2022-09-10T23:06:44.225Z,12.98
2022-09-10T23:09:16.846Z,15.98
2022-09-10T23:11:45.568Z,14.45
2022-09-10T23:14:19.833Z,14.32
2022-09-10T23:16:50.787Z,14.55
2022-09-10T23:21:55.048Z,15.38
2022-09-10T23:24:26.228Z,11.50
2022-09-10T23:29:23.291Z,12.93
2022-09-10T23:31:54.735Z,14.35
2022-09-10T23:34:23.282Z,15.80
2022-09-10T23:36:51.687Z,17.35
2022-09-10T23:39:23.253Z,14.73
2022-09-10T23:41:55.201Z,16.13
2022-09-10T23:44:24.311Z,16.95
2022-09-10T23:46:53.572Z,13.90
2022-09-10T23:49:23.842Z,13.85
2022-09-10T23:51:52.318Z,17.00
2022-09-10T23:54:21.046Z,20.75
2022-09-10T23:56:49.250Z,16.27
2022-09-10T23:59:21.968Z,17.90
